Time;durP1;ratioP1;P1;durP2;ratioP2;P2;SDS_P1;SDS_P2;PMS_P1;PMS_P2;Temp;Humidity;BMP_temperature;BMP_pressure;BME280_temperature;BME280_humidity;BME280_pressure;Samples;Min_cycle;Max_cycle;Signal;HPM_P1;HPM_P2
2022/03/10 00:00:15;;;;;;;;;;;;;;;;;;1016013;29;2894;-73
2022/03/10 00:01:05;;;;;;;;;;;;;;;;;;1009115;29;4061;-74
2022/03/10 00:01:35;;;;;;;;;;;;;;;;;;1010270;29;2120;-75
2022/03/10 00:02:08;;;;;;;;;;;;;;;;;;1012035;29;3795;-74
2022/03/10 00:02:39;;;;;;;;;;;;;;;;;;1019841;28;2485;-74
2022/03/10 00:03:09;;;;;;;;;;;;;;;;;;1020292;28;4266;-74
2022/03/10 00:03:39;;;;;;;;;;;;;;;;;;1021640;29;1410;-74
2022/03/10 00:04:10;;;;;;;;;;;;;;;;;;1019846;28;3796;-74
2022/03/10 00:04:40;;;;;;;;;;;;;;;;;;1020597;28;2528;-75
2022/03/10 00:05:11;;;;;;;;;;;;;;;;;;1021990;28;3909;-73
2022/03/10 00:05:42;;;;;;;;;;;;;;;;;;1021313;28;2126;-74
2022/03/10 00:06:12;;;;;;;;;;;;;;;;;;1017086;29;4056;-73
2022/03/10 00:06:42;;;;;;;;;;;;;;;;;;1016717;29;3861;-73
2022/03/10 00:07:12;;;;;;;;;;;;;;;;;;1017181;29;2135;-73
2022/03/10 00:07:43;;;;;;;;;;;;;;;;;;1016813;29;4023;-75
2022/03/10 00:08:13;;;;;;;;;;;;;;;;;;1021833;28;2030;-75
2022/03/10 00:08:44;;;;;;;;;;;;;;;;;;1021608;28;3978;-76
2022/03/10 00:09:14;;;;;;;;;;;;;;;;;;1021378;28;3122;-73
2022/03/10 00:09:44;;;;;;;;;;;;;;;;;;1021735;28;4185;-77
2022/03/10 00:10:14;;;;;;;;;;;;;;;;;;1022728;28;3024;-76
2022/03/10 00:10:45;;;;;;;;;;;;;;;;;;1022801;28;3852;-74
2022/03/10 00:11:15;;;;;;;;;;;;;;;;;;1022335;28;1331;-75
2022/03/10 00:11:47;;;;;;;;;;;;;;;;;;1021780;28;3844;-74
2022/03/10 00:12:38;;;;;;;;;;;;;;;;;;1020938;28;2679;-75
2022/03/10 00:13:08;;;;;;;;;;;;;;;;;;1021826;28;3770;-76
2022/03/10 00:13:38;;;;;;;;;;;;;;;;;;1022085;28;2232;-75
2022/03/10 00:14:10;;;;;;;;;;;;;;;;;;1022547;28;4034;-75
2022/03/10 00:14:41;;;;;;;;;;;;;;;;;;1022221;28;2452;-74
2022/03/10 00:15:11;;;;;;;;;;;;;;;;;;1022291;28;5402;-76
2022/03/10 00:15:41;;;;;;;;;;;;;;;;;;1021478;28;2735;-76
2022/03/10 00:16:18;;;;;;;;;;;;;;;;;;1021665;28;3955;-75
2022/03/10 00:16:49;;;;;;;;;;;;;;;;;;1021614;29;4012;-75
2022/03/10 00:17:19;;;;;;;;;;;;;;;;;;1022211;28;2443;-75
2022/03/10 00:17:50;;;;;;;;;;;;;;;;;;1021232;28;3862;-75
2022/03/10 00:18:20;;;;;;;;;;;;;;;;;;1021949;28;2828;-74
2022/03/10 00:18:50;;;;;;;;;;;;;;;;;;1022206;28;3990;-75
2022/03/10 00:19:20;;;;;;;;;;;;;;;;;;1022846;28;1838;-75
2022/03/10 00:19:51;;;;;;;;;;;;;;;;;;1021918;28;3946;-74
2022/03/10 00:20:21;;;;;;;;;;;;;;;;;;1021725;28;3136;-76
2022/03/10 00:20:52;;;;;;;;;;;;;;;;;;1023022;28;4018;-74
2022/03/10 00:21:22;;;;;;;;;;;;;;;;;;1021211;28;2131;-75
2022/03/10 00:21:52;;;;;;;;;;;;;;;;;;1017634;29;3958;-77
2022/03/10 00:22:23;;;;;;;;;;;;;;;;;;1018769;29;1685;-74
2022/03/10 00:22:55;;;;;;;;;;;;;;;;;;1017499;29;3963;-75
2022/03/10 00:23:25;;;;;;;;;;;;;;;;;;1015519;29;1792;-74
2022/03/10 00:23:55;;;;;;;;;;;;;;;;;;1016846;29;4061;-75
2022/03/10 00:24:26;;;;;;;;;;;;;;;;;;1013188;29;2843;-74
2022/03/10 00:24:56;;;;;;;;;;;;;;;;;;1013053;29;3849;-75
2022/03/10 00:25:26;;;;;;;;;;;;;;;;;;1018959;29;2886;-75
2022/03/10 00:25:56;;;;;;;;;;;;;;;;;;1017052;29;4023;-74
2022/03/10 00:26:27;;;;;;;;;;;;;;;;;;1021532;28;2897;-74
2022/03/10 00:26:57;;;;;;;;;;;;;;;;;;1021407;28;4023;-75
2022/03/10 00:27:27;;;;;;;;;;;;;;;;;;1022506;28;2783;-75
2022/03/10 00:27:57;;;;;;;;;;;;;;;;;;1020593;28;3806;-76
2022/03/10 00:28:28;;;;;;;;;;;;;;;;;;1023006;28;2640;-74
2022/03/10 00:28:58;;;;;;;;;;;;;;;;;;1021741;28;4026;-75
2022/03/10 00:29:28;;;;;;;;;;;;;;;;;;1018205;29;1772;-73
2022/03/10 00:29:58;;;;;;;;;;;;;;;;;;1017421;29;4122;-75
2022/03/10 00:30:29;;;;;;;;;;;;;;;;;;1017779;29;2244;-74
2022/03/10 00:31:05;;;;;;;;;;;;;;;;;;1016445;28;3841;-74
2022/03/10 00:31:36;;;;;;;;;;;;;;;;;;1022081;29;2698;-75
2022/03/10 00:32:06;;;;;;;;;;;;;;;;;;1021469;28;4003;-73
2022/03/10 00:32:47;;;;;;;;;;;;;;;;;;1022547;28;1576;-75
2022/03/10 00:33:18;;;;;;;;;;;;;;;;;;1022114;28;3898;-74
2022/03/10 00:33:48;;;;;;;;;;;;;;;;;;1022162;28;3870;-75
2022/03/10 00:34:18;;;;;;;;;;;;;;;;;;1021159;29;2557;-74
2022/03/10 00:34:49;;;;;;;;;;;;;;;;;;1018050;29;4038;-74
2022/03/10 00:35:23;;;;;;;;;;;;;;;;;;1015360;29;2032;-74
2022/03/10 00:35:53;;;;;;;;;;;;;;;;;;1012908;29;3847;-74
2022/03/10 00:36:24;;;;;;;;;;;;;;;;;;1014524;29;1683;-74
2022/03/10 00:36:54;;;;;;;;;;;;;;;;;;1016107;29;4142;-74
2022/03/10 00:37:24;;;;;;;;;;;;;;;;;;1018502;29;2011;-75
2022/03/10 00:37:55;;;;;;;;;;;;;;;;;;1020703;28;3790;-76
2022/03/10 00:38:25;;;;;;;;;;;;;;;;;;1022485;28;2143;-73
2022/03/10 00:38:55;;;;;;;;;;;;;;;;;;1021572;28;3843;-73
2022/03/10 00:39:26;;;;;;;;;;;;;;;;;;1021158;29;1993;-76
2022/03/10 00:39:56;;;;;;;;;;;;;;;;;;1021465;28;3984;-73
2022/03/10 00:40:27;;;;;;;;;;;;;;;;;;1022001;28;2276;-75
2022/03/10 00:40:59;;;;;;;;;;;;;;;;;;1021951;28;3858;-75
2022/03/10 00:41:29;;;;;;;;;;;;;;;;;;1021973;28;2348;-75
2022/03/10 00:41:59;;;;;;;;;;;;;;;;;;1021607;28;3829;-76
2022/03/10 00:42:34;;;;;;;;;;;;;;;;;;1021648;28;2738;-75
2022/03/10 00:43:04;;;;;;;;;;;;;;;;;;1021458;28;3812;-75
2022/03/10 00:43:34;;;;;;;;;;;;;;;;;;1021227;28;2107;-75
2022/03/10 00:44:05;;;;;;;;;;;;;;;;;;1021567;28;3817;-76
2022/03/10 00:44:35;;;;;;;;;;;;;;;;;;1022368;28;2194;-76
2022/03/10 00:45:06;;;;;;;;;;;;;;;;;;1021674;28;4031;-75
2022/03/10 00:45:36;;;;;;;;;;;;;;;;;;1022602;28;1724;-77
2022/03/10 00:46:07;;;;;;;;;;;;;;;;;;1021867;28;3797;-75
2022/03/10 00:46:37;;;;;;;;;;;;;;;;;;1022552;28;1970;-77
2022/03/10 00:47:07;;;;;;;;;;;;;;;;;;1021967;28;3865;-75
2022/03/10 00:47:38;;;;;;;;;;;;;;;;;;1023024;29;2439;-75
2022/03/10 00:48:09;;;;;;;;;;;;;;;;;;1016964;29;3850;-74
2022/03/10 00:48:39;;;;;;;;;;;;;;;;;;1015841;29;3485;-74
2022/03/10 00:49:09;;;;;;;;;;;;;;;;;;1017899;29;3983;-75
2022/03/10 00:49:39;;;;;;;;;;;;;;;;;;1018461;29;1883;-76
2022/03/10 00:50:10;;;;;;;;;;;;;;;;;;1021140;28;3997;-76
2022/03/10 00:50:40;;;;;;;;;;;;;;;;;;1022321;28;2802;-76
2022/03/10 00:51:10;;;;;;;;;;;;;;;;;;1022403;28;3762;-75
2022/03/10 00:51:40;;;;;;;;;;;;;;;;;;1019828;28;2827;-75
2022/03/10 00:52:11;;;;;;;;;;;;;;;;;;1021642;28;3992;-76
2022/03/10 00:52:46;;;;;;;;;;;;;;;;;;1022391;28;2668;-74
2022/03/10 00:53:17;;;;;;;;;;;;;;;;;;1022212;28;3942;-77
2022/03/10 00:53:47;;;;;;;;;;;;;;;;;;1020907;28;4354;-74
2022/03/10 00:54:17;;;;;;;;;;;;;;;;;;1021793;28;2742;-75
2022/03/10 00:54:48;;;;;;;;;;;;;;;;;;1020868;28;3827;-75
2022/03/10 00:55:18;;;;;;;;;;;;;;;;;;1022801;28;2578;-74
2022/03/10 00:55:48;;;;;;;;;;;;;;;;;;1021269;29;3922;-75
2022/03/10 00:56:19;;;;;;;;;;;;;;;;;;1022465;29;2255;-76
2022/03/10 00:56:49;;;;;;;;;;;;;;;;;;1018000;29;3834;-75
2022/03/10 00:57:20;;;;;;;;;;;;;;;;;;1017802;29;2650;-74
2022/03/10 00:57:50;;;;;;;;;;;;;;;;;;1012745;29;4334;-76
2022/03/10 00:58:21;;;;;;;;;;;;;;;;;;1013345;29;2617;-75
2022/03/10 00:58:51;;;;;;;;;;;;;;;;;;1017484;29;3806;-76
2022/03/10 00:59:21;;;;;;;;;;;;;;;;;;1018489;29;2793;-75
2022/03/10 00:59:52;;;;;;;;;;;;;;;;;;1021980;28;4163;-76
2022/03/10 01:00:24;;;;;;;;;;;;;;;;;;1018854;29;2164;-75
2022/03/10 01:00:55;;;;;;;;;;;;;;;;;;1019403;29;3944;-76
2022/03/10 01:01:25;;;;;;;;;;;;;;;;;;1019357;29;2125;-75
2022/03/10 01:01:55;;;;;;;;;;;;;;;;;;1017919;29;3842;-75
2022/03/10 01:02:26;;;;;;;;;;;;;;;;;;1022771;28;1867;-75
2022/03/10 01:02:57;;;;;;;;;;;;;;;;;;1021978;28;3845;-76
2022/03/10 01:03:27;;;;;;;;;;;;;;;;;;1021814;29;2168;-76
2022/03/10 01:03:57;;;;;;;;;;;;;;;;;;1017273;29;4045;-75
2022/03/10 01:04:28;;;;;;;;;;;;;;;;;;1018706;29;2092;-74
2022/03/10 01:04:58;;;;;;;;;;;;;;;;;;1017460;29;4019;-74
2022/03/10 01:05:35;;;;;;;;;;;;;;;;;;1019967;29;2382;-72
2022/03/10 01:06:06;;;;;;;;;;;;;;;;;;1022241;28;3829;-75
2022/03/10 01:06:38;;;;;;;;;;;;;;;;;;1022112;28;1934;-76
2022/03/10 01:07:09;;;;;;;;;;;;;;;;;;1020685;28;3854;-74
2022/03/10 01:07:39;;;;;;;;;;;;;;;;;;1022439;29;2163;-75
2022/03/10 01:08:10;;;;;;;;;;;;;;;;;;1021544;28;3979;-75
2022/03/10 01:08:40;;;;;;;;;;;;;;;;;;1022405;29;2641;-76
2022/03/10 01:09:10;;;;;;;;;;;;;;;;;;1021685;28;3775;-75
2022/03/10 01:09:40;;;;;;;;;;;;;;;;;;1020088;29;2039;-76
2022/03/10 01:10:11;;;;;;;;;;;;;;;;;;1021983;28;3847;-75
2022/03/10 01:10:41;;;;;;;;;;;;;;;;;;1022110;28;1891;-75
2022/03/10 01:11:11;;;;;;;;;;;;;;;;;;1021541;29;4029;-75
2022/03/10 01:11:55;;;;;;;;;;;;;;;;;;1021265;28;3847;-75
2022/03/10 01:12:32;;;;;;;;;;;;;;;;;;1021616;29;1917;-75
2022/03/10 01:13:03;;;;;;;;;;;;;;;;;;1022066;28;4044;-75
2022/03/10 01:13:33;;;;;;;;;;;;;;;;;;1022407;29;2279;-74
2022/03/10 01:14:04;;;;;;;;;;;;;;;;;;1021923;28;3830;-74
2022/03/10 01:14:34;;;;;;;;;;;;;;;;;;1022396;29;2086;-74
2022/03/10 01:15:04;;;;;;;;;;;;;;;;;;1021491;29;3993;-75
2022/03/10 01:15:35;;;;;;;;;;;;;;;;;;1022370;29;1695;-72
2022/03/10 01:16:05;;;;;;;;;;;;;;;;;;1018301;29;3793;-74
2022/03/10 01:16:36;;;;;;;;;;;;;;;;;;1018997;29;1590;-74
2022/03/10 01:17:06;;;;;;;;;;;;;;;;;;1016822;29;3823;-74
2022/03/10 01:17:36;;;;;;;;;;;;;;;;;;1017676;29;2409;-76
2022/03/10 01:18:07;;;;;;;;;;;;;;;;;;1021688;28;4818;-77
2022/03/10 01:18:37;;;;;;;;;;;;;;;;;;1021324;29;2493;-75
2022/03/10 01:19:08;;;;;;;;;;;;;;;;;;1021172;28;3836;-76
2022/03/10 01:19:38;;;;;;;;;;;;;;;;;;1017692;29;2047;-75
2022/03/10 01:20:09;;;;;;;;;;;;;;;;;;1018693;29;3791;-76
2022/03/10 01:20:40;;;;;;;;;;;;;;;;;;1018546;29;1473;-74
2022/03/10 01:21:10;;;;;;;;;;;;;;;;;;1021843;28;3883;-76
2022/03/10 01:21:41;;;;;;;;;;;;;;;;;;1018110;29;2099;-74
2022/03/10 01:22:12;;;;;;;;;;;;;;;;;;1017691;29;3838;-75
2022/03/10 01:22:42;;;;;;;;;;;;;;;;;;1017736;29;4129;-75
2022/03/10 01:23:12;;;;;;;;;;;;;;;;;;1019259;29;2353;-76
2022/03/10 01:23:42;;;;;;;;;;;;;;;;;;1021093;28;3943;-75
2022/03/10 01:24:12;;;;;;;;;;;;;;;;;;1022327;28;2502;-75
2022/03/10 01:24:43;;;;;;;;;;;;;;;;;;1019957;28;3951;-75
2022/03/10 01:25:13;;;;;;;;;;;;;;;;;;1022291;28;2192;-75
2022/03/10 01:25:44;;;;;;;;;;;;;;;;;;1016902;29;3860;-75
2022/03/10 01:26:14;;;;;;;;;;;;;;;;;;1018065;29;2713;-74
2022/03/10 01:26:44;;;;;;;;;;;;;;;;;;1016841;29;3876;-74
2022/03/10 01:27:14;;;;;;;;;;;;;;;;;;1018835;29;1680;-76
2022/03/10 01:27:45;;;;;;;;;;;;;;;;;;1020900;28;4003;-75
2022/03/10 01:28:15;;;;;;;;;;;;;;;;;;1016782;29;2305;-75
2022/03/10 01:28:45;;;;;;;;;;;;;;;;;;1017472;29;4018;-75
2022/03/10 01:29:16;;;;;;;;;;;;;;;;;;1017963;29;2934;-74
2022/03/10 01:29:46;;;;;;;;;;;;;;;;;;1017408;29;4060;-76
2022/03/10 01:30:17;;;;;;;;;;;;;;;;;;1021686;28;1830;-75
2022/03/10 01:30:47;;;;;;;;;;;;;;;;;;1021572;28;4001;-74
2022/03/10 01:31:17;;;;;;;;;;;;;;;;;;1021932;28;1961;-76
2022/03/10 01:31:48;;;;;;;;;;;;;;;;;;1021544;28;4098;-74
2022/03/10 01:32:18;;;;;;;;;;;;;;;;;;1022430;28;1908;-73
2022/03/10 01:32:48;;;;;;;;;;;;;;;;;;1021376;28;4081;-75
2022/03/10 01:33:18;;;;;;;;;;;;;;;;;;1022242;28;2429;-75
2022/03/10 01:33:49;;;;;;;;;;;;;;;;;;1021068;28;4034;-76
2022/03/10 01:34:19;;;;;;;;;;;;;;;;;;1022146;28;2144;-74
2022/03/10 01:34:49;;;;;;;;;;;;;;;;;;1020833;28;4077;-75
2022/03/10 01:35:19;;;;;;;;;;;;;;;;;;1017960;29;2263;-74
2022/03/10 01:35:50;;;;;;;;;;;;;;;;;;1018108;29;4017;-75
2022/03/10 01:36:20;;;;;;;;;;;;;;;;;;1018590;29;2075;-75
2022/03/10 01:36:50;;;;;;;;;;;;;;;;;;1017880;29;4000;-74
2022/03/10 01:37:20;;;;;;;;;;;;;;;;;;1017284;29;1926;-75
2022/03/10 01:37:51;;;;;;;;;;;;;;;;;;1018399;29;3995;-76
2022/03/10 01:38:21;;;;;;;;;;;;;;;;;;1013617;29;2472;-76
2022/03/10 01:38:51;;;;;;;;;;;;;;;;;;1013735;29;4008;-76
2022/03/10 01:39:21;;;;;;;;;;;;;;;;;;1017437;29;3138;-74
2022/03/10 01:39:52;;;;;;;;;;;;;;;;;;1016358;29;3992;-76
2022/03/10 01:40:22;;;;;;;;;;;;;;;;;;1022093;28;2997;-76
2022/03/10 01:40:52;;;;;;;;;;;;;;;;;;1020870;28;3848;-76
2022/03/10 01:41:22;;;;;;;;;;;;;;;;;;1021959;29;2772;-74
2022/03/10 01:41:53;;;;;;;;;;;;;;;;;;1021538;28;4044;-76
2022/03/10 01:42:23;;;;;;;;;;;;;;;;;;1021052;29;1796;-75
2022/03/10 01:42:53;;;;;;;;;;;;;;;;;;1017122;29;4940;-76
2022/03/10 01:43:23;;;;;;;;;;;;;;;;;;1019336;29;2495;-75
2022/03/10 01:43:57;;;;;;;;;;;;;;;;;;1018945;29;4102;-76
2022/03/10 01:44:27;;;;;;;;;;;;;;;;;;1018852;29;3104;-76
2022/03/10 01:44:58;;;;;;;;;;;;;;;;;;1016640;29;3879;-75
2022/03/10 01:45:28;;;;;;;;;;;;;;;;;;1018758;29;2703;-76
2022/03/10 01:46:02;;;;;;;;;;;;;;;;;;1016262;29;3852;-74
2022/03/10 01:46:38;;;;;;;;;;;;;;;;;;1022683;28;2218;-75
2022/03/10 01:47:10;;;;;;;;;;;;;;;;;;1021797;28;3998;-75
2022/03/10 01:47:41;;;;;;;;;;;;;;;;;;1023038;28;1635;-77
2022/03/10 01:48:11;;;;;;;;;;;;;;;;;;1021545;29;3927;-74
2022/03/10 01:48:41;;;;;;;;;;;;;;;;;;1021010;28;3157;-73
2022/03/10 01:49:11;;;;;;;;;;;;;;;;;;1021565;28;4333;-75
2022/03/10 01:49:42;;;;;;;;;;;;;;;;;;1021071;28;4060;-75
2022/03/10 01:50:13;;;;;;;;;;;;;;;;;;1021940;29;2112;-75
2022/03/10 01:50:43;;;;;;;;;;;;;;;;;;1017804;28;4075;-75
2022/03/10 01:51:13;;;;;;;;;;;;;;;;;;1019955;28;3364;-75
2022/03/10 01:51:44;;;;;;;;;;;;;;;;;;1020488;28;3842;-75
2022/03/10 01:52:15;;;;;;;;;;;;;;;;;;1016584;29;3038;-76
2022/03/10 01:52:47;;;;;;;;;;;;;;;;;;1016232;29;4013;-75
2022/03/10 01:53:17;;;;;;;;;;;;;;;;;;1017887;29;2199;-75
2022/03/10 01:53:50;;;;;;;;;;;;;;;;;;1013303;29;3834;-76
2022/03/10 01:54:21;;;;;;;;;;;;;;;;;;1018555;29;1766;-74
2022/03/10 01:54:51;;;;;;;;;;;;;;;;;;1016771;29;4257;-75
2022/03/10 01:55:22;;;;;;;;;;;;;;;;;;1013490;29;2729;-74
2022/03/10 01:55:52;;;;;;;;;;;;;;;;;;1021419;28;3833;-74
2022/03/10 01:56:23;;;;;;;;;;;;;;;;;;1021717;28;2811;-75
2022/03/10 01:56:53;;;;;;;;;;;;;;;;;;1020124;28;3811;-75
2022/03/10 01:57:24;;;;;;;;;;;;;;;;;;1017221;29;2601;-72
2022/03/10 01:57:55;;;;;;;;;;;;;;;;;;1016211;29;4018;-74
2022/03/10 01:58:25;;;;;;;;;;;;;;;;;;1011811;29;2059;-75
2022/03/10 01:58:55;;;;;;;;;;;;;;;;;;1011127;29;4031;-76
2022/03/10 01:59:26;;;;;;;;;;;;;;;;;;1017026;29;2734;-75
2022/03/10 01:59:56;;;;;;;;;;;;;;;;;;1016917;29;3849;-75
2022/03/10 02:00:27;;;;;;;;;;;;;;;;;;1022495;28;2775;-75
2022/03/10 02:00:57;;;;;;;;;;;;;;;;;;1020488;28;3875;-75
2022/03/10 02:01:27;;;;;;;;;;;;;;;;;;1023144;28;1931;-74
2022/03/10 02:01:58;;;;;;;;;;;;;;;;;;1020617;28;4157;-76
2022/03/10 02:02:28;;;;;;;;;;;;;;;;;;1022921;28;1506;-75
2022/03/10 02:02:58;;;;;;;;;;;;;;;;;;1021768;29;4029;-75
2022/03/10 02:03:29;;;;;;;;;;;;;;;;;;1021912;28;2000;-75
2022/03/10 02:03:59;;;;;;;;;;;;;;;;;;1020074;29;3990;-75
2022/03/10 02:04:29;;;;;;;;;;;;;;;;;;1022050;28;2112;-76
2022/03/10 02:04:59;;;;;;;;;;;;;;;;;;1021520;28;4003;-74
2022/03/10 02:05:31;;;;;;;;;;;;;;;;;;1022749;29;2237;-75
2022/03/10 02:06:01;;;;;;;;;;;;;;;;;;1021786;28;3932;-74
2022/03/10 02:06:31;;;;;;;;;;;;;;;;;;1022021;28;2496;-75
2022/03/10 02:07:03;;;;;;;;;;;;;;;;;;1021393;28;3840;-75
2022/03/10 02:10:19;;;;;;;;;;;;;;;;;;1019923;28;3819;-75
2022/03/10 02:10:49;;;;;;;;;;;;;;;;;;1020767;28;3870;-76
2022/03/10 02:11:20;;;;;;;;;;;;;;;;;;1022673;28;2957;-76
2022/03/10 02:12:04;;;;;;;;;;;;;;;;;;1020713;28;3834;-75
2022/03/10 02:12:41;;;;;;;;;;;;;;;;;;1022535;28;1833;-74
2022/03/10 02:13:11;;;;;;;;;;;;;;;;;;1020971;28;4014;-75
2022/03/10 02:13:42;;;;;;;;;;;;;;;;;;1022197;28;2515;-75
2022/03/10 02:17:44;;;;;;;;;;;;;;;;;;1021471;29;3904;-76
2022/03/10 02:18:16;;;;;;;;;;;;;;;;;;1022669;28;1696;-75
2022/03/10 02:18:46;;;;;;;;;;;;;;;;;;1021920;28;4032;-75
2022/03/10 02:19:16;;;;;;;;;;;;;;;;;;1021441;28;2778;-75
2022/03/10 02:19:49;;;;;;;;;;;;;;;;;;1021820;28;3841;-75
2022/03/10 02:20:19;;;;;;;;;;;;;;;;;;1021835;28;2110;-75
2022/03/10 02:20:49;;;;;;;;;;;;;;;;;;1022168;28;3963;-76
2022/03/10 02:21:20;;;;;;;;;;;;;;;;;;1022351;28;1571;-75
2022/03/10 02:21:50;;;;;;;;;;;;;;;;;;1020289;29;3937;-74
2022/03/10 02:22:21;;;;;;;;;;;;;;;;;;1021040;28;2061;-76
2022/03/10 02:22:52;;;;;;;;;;;;;;;;;;1021037;29;4041;-76
2022/03/10 02:23:23;;;;;;;;;;;;;;;;;;1022861;28;1647;-75
2022/03/10 02:23:53;;;;;;;;;;;;;;;;;;1021035;28;4157;-74
2022/03/10 02:24:24;;;;;;;;;;;;;;;;;;1018016;29;2688;-75
2022/03/10 02:24:54;;;;;;;;;;;;;;;;;;1015953;29;3838;-75
2022/03/10 02:25:25;;;;;;;;;;;;;;;;;;1018592;29;1616;-75
2022/03/10 02:25:58;;;;;;;;;;;;;;;;;;1012324;29;3861;-75
2022/03/10 02:26:28;;;;;;;;;;;;;;;;;;1013536;29;2898;-74
2022/03/10 02:26:58;;;;;;;;;;;;;;;;;;1012303;29;3865;-75
2022/03/10 02:27:29;;;;;;;;;;;;;;;;;;1015304;29;2448;-74
2022/03/10 02:27:59;;;;;;;;;;;;;;;;;;1015887;29;3833;-75
2022/03/10 02:28:30;;;;;;;;;;;;;;;;;;1018297;29;2632;-74
2022/03/10 02:29:01;;;;;;;;;;;;;;;;;;1017258;29;4141;-74
2022/03/10 02:29:31;;;;;;;;;;;;;;;;;;1018005;29;2333;-76
2022/03/10 02:30:02;;;;;;;;;;;;;;;;;;1017876;29;3955;-76
2022/03/10 02:30:34;;;;;;;;;;;;;;;;;;1020741;28;2919;-74
2022/03/10 02:31:04;;;;;;;;;;;;;;;;;;1023122;28;4009;-75
2022/03/10 02:31:35;;;;;;;;;;;;;;;;;;1022407;28;1702;-75
2022/03/10 02:32:05;;;;;;;;;;;;;;;;;;1017761;29;3857;-75
2022/03/10 02:32:36;;;;;;;;;;;;;;;;;;1018899;29;2172;-75
2022/03/10 02:33:06;;;;;;;;;;;;;;;;;;1017478;29;3835;-75
2022/03/10 02:33:37;;;;;;;;;;;;;;;;;;1018472;29;2745;-74
2022/03/10 02:34:10;;;;;;;;;;;;;;;;;;1020858;29;4008;-74
2022/03/10 02:34:41;;;;;;;;;;;;;;;;;;1021253;28;2746;-74
2022/03/10 02:35:12;;;;;;;;;;;;;;;;;;1020593;28;3759;-74
2022/03/10 02:35:43;;;;;;;;;;;;;;;;;;1020841;28;3845;-74
2022/03/10 02:36:13;;;;;;;;;;;;;;;;;;1021959;28;2622;-74
2022/03/10 02:36:43;;;;;;;;;;;;;;;;;;1022265;28;3995;-75
2022/03/10 02:37:14;;;;;;;;;;;;;;;;;;1020998;28;2575;-74
2022/03/10 02:37:45;;;;;;;;;;;;;;;;;;1021271;28;4079;-75
2022/03/10 02:38:17;;;;;;;;;;;;;;;;;;1021887;28;1759;-75
2022/03/10 02:38:48;;;;;;;;;;;;;;;;;;1021623;28;4017;-75
2022/03/10 02:39:18;;;;;;;;;;;;;;;;;;1021354;28;2430;-75
2022/03/10 02:39:48;;;;;;;;;;;;;;;;;;1021640;28;3890;-75
2022/03/10 02:40:19;;;;;;;;;;;;;;;;;;1022155;28;2821;-75
2022/03/10 02:40:50;;;;;;;;;;;;;;;;;;1020533;28;3864;-74
2022/03/10 02:41:20;;;;;;;;;;;;;;;;;;1022643;28;2812;-75
2022/03/10 02:41:50;;;;;;;;;;;;;;;;;;1021668;28;4005;-75
2022/03/10 02:42:21;;;;;;;;;;;;;;;;;;1022477;28;2509;-74
2022/03/10 02:42:51;;;;;;;;;;;;;;;;;;1021489;28;3860;-75
2022/03/10 02:43:21;;;;;;;;;;;;;;;;;;1020719;29;1898;-75
2022/03/10 02:43:51;;;;;;;;;;;;;;;;;;1021427;28;4003;-74
2022/03/10 02:44:22;;;;;;;;;;;;;;;;;;1023127;28;1897;-75
2022/03/10 02:44:52;;;;;;;;;;;;;;;;;;1021209;28;3855;-74
2022/03/10 02:45:23;;;;;;;;;;;;;;;;;;1021996;28;2857;-76
2022/03/10 02:45:53;;;;;;;;;;;;;;;;;;1021366;28;3859;-75
2022/03/10 02:46:23;;;;;;;;;;;;;;;;;;1021983;28;1956;-75
2022/03/10 02:46:54;;;;;;;;;;;;;;;;;;1020841;28;3831;-76
2022/03/10 02:47:24;;;;;;;;;;;;;;;;;;1022479;28;1754;-75
2022/03/10 02:47:54;;;;;;;;;;;;;;;;;;1021546;28;3851;-75
2022/03/10 02:48:25;;;;;;;;;;;;;;;;;;1022138;28;1663;-76
2022/03/10 02:48:55;;;;;;;;;;;;;;;;;;1020814;28;3831;-75
2022/03/10 02:49:25;;;;;;;;;;;;;;;;;;1018079;29;2388;-75
2022/03/10 02:49:56;;;;;;;;;;;;;;;;;;1017451;29;4049;-75
2022/03/10 02:50:26;;;;;;;;;;;;;;;;;;1018140;29;2901;-74
2022/03/10 02:50:56;;;;;;;;;;;;;;;;;;1016588;29;3822;-75
2022/03/10 02:51:26;;;;;;;;;;;;;;;;;;1022333;28;2520;-75
2022/03/10 02:51:56;;;;;;;;;;;;;;;;;;1020129;28;3965;-78
2022/03/10 02:52:27;;;;;;;;;;;;;;;;;;1022123;28;2393;-75
2022/03/10 02:52:57;;;;;;;;;;;;;;;;;;1022249;28;3865;-75
2022/03/10 02:53:27;;;;;;;;;;;;;;;;;;1022522;28;1954;-77
2022/03/10 02:53:57;;;;;;;;;;;;;;;;;;1022013;28;3805;-77
2022/03/10 02:54:28;;;;;;;;;;;;;;;;;;1021047;28;2347;-74
2022/03/10 02:54:58;;;;;;;;;;;;;;;;;;1020328;29;3814;-76
2022/03/10 02:55:28;;;;;;;;;;;;;;;;;;1021157;28;2256;-75
2022/03/10 02:55:58;;;;;;;;;;;;;;;;;;1021784;28;4132;-76
2022/03/10 02:56:29;;;;;;;;;;;;;;;;;;1023335;28;2107;-75
2022/03/10 02:56:59;;;;;;;;;;;;;;;;;;1020103;28;3860;-74
2022/03/10 02:57:31;;;;;;;;;;;;;;;;;;1022459;28;2676;-75
2022/03/10 02:58:01;;;;;;;;;;;;;;;;;;1020108;28;4048;-75
2022/03/10 02:58:31;;;;;;;;;;;;;;;;;;1021507;28;1829;-75
2022/03/10 02:59:02;;;;;;;;;;;;;;;;;;1021320;28;3836;-75
2022/03/10 02:59:32;;;;;;;;;;;;;;;;;;1022509;28;2919;-75
2022/03/10 03:00:03;;;;;;;;;;;;;;;;;;1021717;28;3994;-76
2022/03/10 03:00:34;;;;;;;;;;;;;;;;;;1021950;29;2973;-74
2022/03/10 03:01:04;;;;;;;;;;;;;;;;;;1020858;28;4053;-76
2022/03/10 03:01:35;;;;;;;;;;;;;;;;;;1020822;28;2285;-75
2022/03/10 03:02:05;;;;;;;;;;;;;;;;;;1021598;28;3826;-75
2022/03/10 03:02:36;;;;;;;;;;;;;;;;;;1022153;28;1843;-74
2022/03/10 03:03:06;;;;;;;;;;;;;;;;;;1022150;28;3837;-76
2022/03/10 03:03:36;;;;;;;;;;;;;;;;;;1021892;28;2378;-74
2022/03/10 03:04:07;;;;;;;;;;;;;;;;;;1022044;28;3967;-75
2022/03/10 03:04:37;;;;;;;;;;;;;;;;;;1021625;28;2806;-74
2022/03/10 03:05:08;;;;;;;;;;;;;;;;;;1022388;28;4019;-76
2022/03/10 03:05:38;;;;;;;;;;;;;;;;;;1022724;28;1857;-76
2022/03/10 03:06:09;;;;;;;;;;;;;;;;;;1021763;28;3964;-75
2022/03/10 03:06:39;;;;;;;;;;;;;;;;;;1020963;29;2656;-76
2022/03/10 03:07:09;;;;;;;;;;;;;;;;;;1020157;28;3981;-76
2022/03/10 03:07:40;;;;;;;;;;;;;;;;;;1018184;29;2288;-75
2022/03/10 03:08:11;;;;;;;;;;;;;;;;;;1016894;29;3982;-75
2022/03/10 03:08:41;;;;;;;;;;;;;;;;;;1018639;29;1668;-74
2022/03/10 03:09:18;;;;;;;;;;;;;;;;;;1018749;29;4939;-76
2022/03/10 03:09:49;;;;;;;;;;;;;;;;;;1021235;28;4036;-75
2022/03/10 03:10:19;;;;;;;;;;;;;;;;;;1020116;28;2268;-74
2022/03/10 03:10:49;;;;;;;;;;;;;;;;;;1017939;29;3910;-75
2022/03/10 03:11:19;;;;;;;;;;;;;;;;;;1017870;29;1619;-75
2022/03/10 03:12:03;;;;;;;;;;;;;;;;;;1017599;29;3807;-74
2022/03/10 03:12:44;;;;;;;;;;;;;;;;;;1020558;28;1811;-75
2022/03/10 03:13:14;;;;;;;;;;;;;;;;;;1021709;28;3881;-76
2022/03/10 03:13:45;;;;;;;;;;;;;;;;;;1021790;28;3867;-75
2022/03/10 03:14:15;;;;;;;;;;;;;;;;;;1021626;28;2303;-76
2022/03/10 03:14:46;;;;;;;;;;;;;;;;;;1020918;28;4058;-75
2022/03/10 03:15:16;;;;;;;;;;;;;;;;;;1020863;28;2831;-76
2022/03/10 03:15:46;;;;;;;;;;;;;;;;;;1021945;28;3825;-75
2022/03/10 03:16:17;;;;;;;;;;;;;;;;;;1020575;28;2530;-74
2022/03/10 03:16:48;;;;;;;;;;;;;;;;;;1021206;28;3979;-76
2022/03/10 03:17:18;;;;;;;;;;;;;;;;;;1021849;28;2129;-76
2022/03/10 03:17:48;;;;;;;;;;;;;;;;;;1022653;28;3846;-76
2022/03/10 03:18:19;;;;;;;;;;;;;;;;;;1017186;29;1691;-76
2022/03/10 03:18:50;;;;;;;;;;;;;;;;;;1014083;29;3830;-75
2022/03/10 03:19:20;;;;;;;;;;;;;;;;;;1013197;29;2633;-75
2022/03/10 03:19:51;;;;;;;;;;;;;;;;;;1014304;29;4057;-75
2022/03/10 03:20:21;;;;;;;;;;;;;;;;;;1017583;29;2905;-74
2022/03/10 03:20:52;;;;;;;;;;;;;;;;;;1020064;28;3872;-76
2022/03/10 03:21:23;;;;;;;;;;;;;;;;;;1013771;29;2043;-74
2022/03/10 03:21:54;;;;;;;;;;;;;;;;;;1013185;29;4000;-77
2022/03/10 03:22:25;;;;;;;;;;;;;;;;;;1012937;29;2407;-74
2022/03/10 03:22:55;;;;;;;;;;;;;;;;;;1013711;29;3854;-74
2022/03/10 03:23:25;;;;;;;;;;;;;;;;;;1021869;28;2458;-75
2022/03/10 03:23:56;;;;;;;;;;;;;;;;;;1021643;28;4073;-75
2022/03/10 03:24:26;;;;;;;;;;;;;;;;;;1017284;29;2404;-74
2022/03/10 03:24:56;;;;;;;;;;;;;;;;;;1017346;29;4029;-76
2022/03/10 03:25:27;;;;;;;;;;;;;;;;;;1015894;29;2129;-74
2022/03/10 03:25:57;;;;;;;;;;;;;;;;;;1013822;29;3824;-74
2022/03/10 03:26:27;;;;;;;;;;;;;;;;;;1016584;29;3438;-75
2022/03/10 03:26:58;;;;;;;;;;;;;;;;;;1016207;29;3815;-75
2022/03/10 03:27:28;;;;;;;;;;;;;;;;;;1017003;29;1892;-76
2022/03/10 03:27:59;;;;;;;;;;;;;;;;;;1015687;28;3805;-74
2022/03/10 03:28:29;;;;;;;;;;;;;;;;;;1020101;28;3154;-74
2022/03/10 03:29:00;;;;;;;;;;;;;;;;;;1019296;28;3976;-76
2022/03/10 03:29:30;;;;;;;;;;;;;;;;;;1015929;29;2829;-74
2022/03/10 03:30:00;;;;;;;;;;;;;;;;;;1016211;29;3807;-77
2022/03/10 03:30:30;;;;;;;;;;;;;;;;;;1018781;29;1983;-76
2022/03/10 03:31:01;;;;;;;;;;;;;;;;;;1017299;29;3984;-74
2022/03/10 03:31:32;;;;;;;;;;;;;;;;;;1020914;28;2619;-74
2022/03/10 03:32:02;;;;;;;;;;;;;;;;;;1021525;28;3825;-75
2022/03/10 03:32:32;;;;;;;;;;;;;;;;;;1021391;28;3004;-76
2022/03/10 03:33:03;;;;;;;;;;;;;;;;;;1021580;28;3848;-76
2022/03/10 03:33:33;;;;;;;;;;;;;;;;;;1021989;28;2317;-76
2022/03/10 03:34:09;;;;;;;;;;;;;;;;;;1020672;29;3795;-74
2022/03/10 03:34:40;;;;;;;;;;;;;;;;;;1017457;29;2114;-75
2022/03/10 03:35:10;;;;;;;;;;;;;;;;;;1017662;29;3916;-76
2022/03/10 03:35:41;;;;;;;;;;;;;;;;;;1017745;29;2152;-74
2022/03/10 03:36:11;;;;;;;;;;;;;;;;;;1017364;29;3973;-74
2022/03/10 03:36:43;;;;;;;;;;;;;;;;;;1022745;28;2290;-75
2022/03/10 03:37:13;;;;;;;;;;;;;;;;;;1021871;28;3882;-75
2022/03/10 03:37:43;;;;;;;;;;;;;;;;;;1021157;29;4033;-74
2022/03/10 03:38:13;;;;;;;;;;;;;;;;;;1020899;28;2621;-76
2022/03/10 03:38:44;;;;;;;;;;;;;;;;;;1021557;28;3813;-74
2022/03/10 03:39:14;;;;;;;;;;;;;;;;;;1021306;28;2133;-75
2022/03/10 03:39:44;;;;;;;;;;;;;;;;;;1021210;28;3998;-76
2022/03/10 03:40:15;;;;;;;;;;;;;;;;;;1021111;28;2751;-75
2022/03/10 03:40:45;;;;;;;;;;;;;;;;;;1020876;28;4008;-75